Meath Environmental Platform

Observations for Trim Patrick St

Time AQI Temp °C Hum % Pres Pa CO μg/m³ H₂S μg/m³ NO μg/m³ NO₂ μg/m³ O₃ μg/m³ SO₂ μg/m³ PM1 μg/m³ PM2.5 μg/m³ PM10 μg/m³
Friday 7 August 2026
19:42 3 28.9 34 69,173 0 16.32 0.85 15.48 76.45 15.16 3.71 10.63 11.7
19:41 3 29 34 69,193 0 19.58 0.8 20.89 91.61 16.15 2.86 9.83 10.82
19:40 3 29.1 33 69,210 0 17.62 0.77 15.66 85.93 15.56 2 9.06 9.96
19:39 3 29.3 33 69,212 0 19.78 0.79 29.99 76.43 15.48 2 9.08 9.99
19:38 3 29.4 33 69,210 0 13.26 0.83 15.6 91.18 16 2 8.29 9.12
19:37 3 29.5 33 69,210 0 15.91 0.85 14.38 71.09 16.11 2 9.9 10.89
19:36 3 29.6 33 69,177 0 13.17 0.87 18.16 90.68 16.35 3.71 9.9 10.89
19:35 3 29.7 32 69,189 0 9.44 0.97 12.96 75.46 15.72 2.86 10.73 11.8
19:34 3 29.8 32 69,175 0 13.53 0.94 17.12 78.2 15.99 2.86 9.93 10.92
19:33 3 29.9 32 69,187 0 10.04 1 14.92 91.59 16.16 2.86 9.13 10.04
19:32 3 30.1 32 69,202 0 6.48 0.87 15.28 71.93 15.44 3.71 9.94 10.93
19:31 3 30.2 32 69,220 0 7.58 0.9 15.44 70.17 16.15 3.71 9.95 10.95
19:30 3 30.3 32 69,240 0 8.64 1 15.45 87.95 15.98 2.86 9.15 10.07
19:29 3 30.4 32 69,242 0 11.42 0.94 15.65 71.96 16.33 2 8.36 9.19
19:28 3 30.6 32 69,242 0 13.63 1.02 20.07 88.51 17.05 4.57 9.99 10.99
19:27 3 30.7 32 69,236 0 10.4 1.06 16.86 77.99 16 3.71 9.18 10.1
19:26 3 30.7 31 69,262 0 10.24 1.07 20.55 74.14 15.53 2.86 9.21 10.13
19:25 3 30.9 31 69,265 0 11.84 0.95 23.93 69.68 16.29 3.71 10.8 11.88
19:24 3 31 31 69,242 0 4.47 1.01 16.08 64.51 16.74 3.71 10.04 11.04
19:23 3 31 31 69,269 0 1.41 1.06 14.94 67.59 15.76 3.71 9.24 10.16